sensor_id;sensor_type;location;lat;lon;timestamp;P1;durP1;ratioP1;P2;durP2;ratioP2
739;SDS011;354;42.694;23.336;2022-10-16T00:00:39;21.37;;;19.23;;
739;SDS011;354;42.694;23.336;2022-10-16T00:03:05;22.27;;;17.80;;
739;SDS011;354;42.694;23.336;2022-10-16T00:05:30;21.10;;;18.90;;
739;SDS011;354;42.694;23.336;2022-10-16T00:07:56;21.50;;;19.27;;
739;SDS011;354;42.694;23.336;2022-10-16T00:10:21;22.77;;;20.40;;
739;SDS011;354;42.694;23.336;2022-10-16T00:12:46;22.97;;;20.47;;
739;SDS011;354;42.694;23.336;2022-10-16T00:15:11;24.63;;;21.30;;
739;SDS011;354;42.694;23.336;2022-10-16T00:17:37;23.10;;;20.73;;
739;SDS011;354;42.694;23.336;2022-10-16T00:20:02;23.23;;;20.83;;
739;SDS011;354;42.694;23.336;2022-10-16T00:22:27;24.23;;;21.87;;
739;SDS011;354;42.694;23.336;2022-10-16T00:24:53;25.63;;;21.63;;
739;SDS011;354;42.694;23.336;2022-10-16T00:27:18;23.43;;;20.93;;
739;SDS011;354;42.694;23.336;2022-10-16T00:29:43;24.53;;;21.53;;
739;SDS011;354;42.694;23.336;2022-10-16T00:32:08;27.23;;;21.37;;
739;SDS011;354;42.694;23.336;2022-10-16T00:34:34;25.57;;;22.27;;
739;SDS011;354;42.694;23.336;2022-10-16T00:36:59;24.43;;;20.97;;
739;SDS011;354;42.694;23.336;2022-10-16T00:39:24;24.43;;;21.83;;
739;SDS011;354;42.694;23.336;2022-10-16T00:41:49;24.70;;;22.23;;
739;SDS011;354;42.694;23.336;2022-10-16T00:46:59;24.77;;;22.17;;
739;SDS011;354;42.694;23.336;2022-10-16T00:49:24;24.60;;;22.20;;
739;SDS011;354;42.694;23.336;2022-10-16T00:51:50;25.37;;;22.87;;
739;SDS011;354;42.694;23.336;2022-10-16T00:54:17;28.27;;;22.60;;
739;SDS011;354;42.694;23.336;2022-10-16T00:56:44;29.70;;;22.93;;
739;SDS011;354;42.694;23.336;2022-10-16T00:59:18;26.63;;;23.73;;
739;SDS011;354;42.694;23.336;2022-10-16T01:01:44;23.47;;;20.93;;
739;SDS011;354;42.694;23.336;2022-10-16T01:04:09;26.33;;;23.57;;
739;SDS011;354;42.694;23.336;2022-10-16T01:17:02;25.27;;;22.73;;
739;SDS011;354;42.694;23.336;2022-10-16T01:22:09;25.53;;;22.80;;
739;SDS011;354;42.694;23.336;2022-10-16T01:24:38;24.93;;;22.27;;
739;SDS011;354;42.694;23.336;2022-10-16T01:27:12;26.13;;;23.33;;
739;SDS011;354;42.694;23.336;2022-10-16T01:29:40;25.97;;;23.37;;
739;SDS011;354;42.694;23.336;2022-10-16T01:32:12;29.13;;;23.97;;
739;SDS011;354;42.694;23.336;2022-10-16T01:34:45;26.40;;;23.67;;
739;SDS011;354;42.694;23.336;2022-10-16T01:37:14;25.73;;;22.53;;
739;SDS011;354;42.694;23.336;2022-10-16T01:39:40;24.47;;;21.97;;
739;SDS011;354;42.694;23.336;2022-10-16T01:42:17;25.10;;;22.40;;
739;SDS011;354;42.694;23.336;2022-10-16T01:44:43;25.90;;;23.07;;
739;SDS011;354;42.694;23.336;2022-10-16T01:47:10;25.87;;;23.07;;
739;SDS011;354;42.694;23.336;2022-10-16T01:49:37;24.63;;;22.13;;
739;SDS011;354;42.694;23.336;2022-10-16T01:52:08;26.77;;;21.67;;
739;SDS011;354;42.694;23.336;2022-10-16T01:54:34;23.37;;;21.17;;
739;SDS011;354;42.694;23.336;2022-10-16T01:57:00;25.87;;;23.37;;
739;SDS011;354;42.694;23.336;2022-10-16T01:59:26;26.37;;;21.60;;
739;SDS011;354;42.694;23.336;2022-10-16T02:01:54;26.70;;;22.87;;
739;SDS011;354;42.694;23.336;2022-10-16T02:04:54;25.50;;;22.90;;
739;SDS011;354;42.694;23.336;2022-10-16T02:07:12;25.07;;;21.17;;
739;SDS011;354;42.694;23.336;2022-10-16T02:09:37;21.87;;;19.60;;
739;SDS011;354;42.694;23.336;2022-10-16T02:12:06;29.57;;;21.33;;
739;SDS011;354;42.694;23.336;2022-10-16T02:14:33;26.97;;;20.10;;
739;SDS011;354;42.694;23.336;2022-10-16T02:16:59;21.00;;;18.87;;
739;SDS011;354;42.694;23.336;2022-10-16T02:19:24;20.50;;;18.40;;
739;SDS011;354;42.694;23.336;2022-10-16T02:22:02;21.80;;;19.60;;
739;SDS011;354;42.694;23.336;2022-10-16T02:29:21;18.97;;;17.10;;
739;SDS011;354;42.694;23.336;2022-10-16T02:31:48;19.30;;;17.50;;
739;SDS011;354;42.694;23.336;2022-10-16T02:34:14;17.43;;;15.93;;
739;SDS011;354;42.694;23.336;2022-10-16T02:36:40;19.07;;;17.10;;
739;SDS011;354;42.694;23.336;2022-10-16T02:39:06;17.83;;;15.93;;
739;SDS011;354;42.694;23.336;2022-10-16T02:41:32;18.47;;;16.73;;
739;SDS011;354;42.694;23.336;2022-10-16T02:43:58;18.57;;;16.90;;
739;SDS011;354;42.694;23.336;2022-10-16T02:46:23;18.53;;;16.60;;
739;SDS011;354;42.694;23.336;2022-10-16T02:48:48;17.97;;;16.37;;
739;SDS011;354;42.694;23.336;2022-10-16T02:51:13;16.43;;;14.93;;
739;SDS011;354;42.694;23.336;2022-10-16T02:53:39;17.27;;;15.63;;
739;SDS011;354;42.694;23.336;2022-10-16T02:56:04;17.57;;;15.87;;
739;SDS011;354;42.694;23.336;2022-10-16T02:58:29;17.33;;;15.63;;
739;SDS011;354;42.694;23.336;2022-10-16T03:00:55;15.77;;;14.37;;
739;SDS011;354;42.694;23.336;2022-10-16T03:03:20;18.07;;;16.43;;
739;SDS011;354;42.694;23.336;2022-10-16T03:05:45;17.70;;;16.17;;
739;SDS011;354;42.694;23.336;2022-10-16T03:08:11;19.57;;;17.80;;
739;SDS011;354;42.694;23.336;2022-10-16T03:10:36;18.77;;;16.83;;
739;SDS011;354;42.694;23.336;2022-10-16T03:13:01;17.63;;;15.93;;
739;SDS011;354;42.694;23.336;2022-10-16T03:15:27;17.70;;;16.00;;
739;SDS011;354;42.694;23.336;2022-10-16T03:17:53;16.83;;;15.33;;
739;SDS011;354;42.694;23.336;2022-10-16T03:20:19;17.17;;;15.40;;
739;SDS011;354;42.694;23.336;2022-10-16T03:22:44;17.50;;;15.73;;
739;SDS011;354;42.694;23.336;2022-10-16T03:25:09;17.60;;;16.00;;
739;SDS011;354;42.694;23.336;2022-10-16T03:27:35;17.80;;;16.30;;
739;SDS011;354;42.694;23.336;2022-10-16T03:30:00;17.77;;;15.97;;
739;SDS011;354;42.694;23.336;2022-10-16T03:32:25;19.07;;;17.27;;
739;SDS011;354;42.694;23.336;2022-10-16T03:34:50;41.87;;;37.63;;
739;SDS011;354;42.694;23.336;2022-10-16T03:37:15;23.70;;;21.40;;
739;SDS011;354;42.694;23.336;2022-10-16T03:39:41;18.13;;;16.43;;
739;SDS011;354;42.694;23.336;2022-10-16T03:42:06;19.17;;;17.17;;
739;SDS011;354;42.694;23.336;2022-10-16T03:44:31;20.33;;;18.33;;
739;SDS011;354;42.694;23.336;2022-10-16T03:46:56;19.50;;;17.63;;
739;SDS011;354;42.694;23.336;2022-10-16T03:49:22;21.00;;;18.80;;
739;SDS011;354;42.694;23.336;2022-10-16T03:51:47;19.47;;;17.40;;
739;SDS011;354;42.694;23.336;2022-10-16T03:54:12;19.20;;;17.33;;
739;SDS011;354;42.694;23.336;2022-10-16T03:56:38;18.43;;;16.83;;
739;SDS011;354;42.694;23.336;2022-10-16T03:59:03;21.93;;;19.97;;
739;SDS011;354;42.694;23.336;2022-10-16T04:01:28;19.77;;;17.87;;
739;SDS011;354;42.694;23.336;2022-10-16T04:03:53;20.47;;;18.47;;
739;SDS011;354;42.694;23.336;2022-10-16T04:06:19;21.30;;;19.40;;
739;SDS011;354;42.694;23.336;2022-10-16T04:08:44;26.60;;;23.83;;
739;SDS011;354;42.694;23.336;2022-10-16T04:11:10;19.37;;;17.47;;
739;SDS011;354;42.694;23.336;2022-10-16T04:13:35;20.40;;;18.50;;
739;SDS011;354;42.694;23.336;2022-10-16T04:16:00;20.43;;;18.53;;
739;SDS011;354;42.694;23.336;2022-10-16T04:18:25;21.57;;;19.63;;
739;SDS011;354;42.694;23.336;2022-10-16T04:20:52;20.40;;;18.53;;
739;SDS011;354;42.694;23.336;2022-10-16T04:23:17;20.23;;;18.20;;
739;SDS011;354;42.694;23.336;2022-10-16T04:25:42;31.23;;;26.83;;
739;SDS011;354;42.694;23.336;2022-10-16T04:28:08;21.13;;;19.23;;
739;SDS011;354;42.694;23.336;2022-10-16T04:30:33;20.40;;;18.37;;
739;SDS011;354;42.694;23.336;2022-10-16T04:32:58;21.23;;;19.33;;
739;SDS011;354;42.694;23.336;2022-10-16T04:35:23;22.03;;;19.93;;
739;SDS011;354;42.694;23.336;2022-10-16T04:37:49;21.90;;;19.83;;
739;SDS011;354;42.694;23.336;2022-10-16T04:40:15;21.33;;;19.00;;
739;SDS011;354;42.694;23.336;2022-10-16T04:42:40;22.17;;;20.00;;
739;SDS011;354;42.694;23.336;2022-10-16T04:45:06;22.87;;;17.87;;
739;SDS011;354;42.694;23.336;2022-10-16T04:47:31;19.37;;;17.33;;
739;SDS011;354;42.694;23.336;2022-10-16T04:49:56;21.10;;;19.20;;
739;SDS011;354;42.694;23.336;2022-10-16T04:52:22;20.53;;;18.43;;
739;SDS011;354;42.694;23.336;2022-10-16T04:54:49;22.83;;;20.87;;
739;SDS011;354;42.694;23.336;2022-10-16T04:57:15;20.53;;;18.53;;
739;SDS011;354;42.694;23.336;2022-10-16T04:59:40;21.73;;;19.83;;
739;SDS011;354;42.694;23.336;2022-10-16T05:02:05;31.60;;;27.30;;
739;SDS011;354;42.694;23.336;2022-10-16T05:04:31;28.63;;;25.73;;
739;SDS011;354;42.694;23.336;2022-10-16T05:06:56;20.90;;;18.80;;
739;SDS011;354;42.694;23.336;2022-10-16T05:09:21;18.20;;;16.60;;
739;SDS011;354;42.694;23.336;2022-10-16T05:11:46;18.43;;;16.67;;
739;SDS011;354;42.694;23.336;2022-10-16T05:14:12;19.23;;;17.50;;
739;SDS011;354;42.694;23.336;2022-10-16T05:16:37;18.30;;;15.80;;
739;SDS011;354;42.694;23.336;2022-10-16T05:19:02;19.60;;;17.87;;
739;SDS011;354;42.694;23.336;2022-10-16T05:21:27;18.87;;;17.27;;
739;SDS011;354;42.694;23.336;2022-10-16T05:23:53;17.40;;;15.80;;
739;SDS011;354;42.694;23.336;2022-10-16T05:26:19;17.73;;;15.97;;
739;SDS011;354;42.694;23.336;2022-10-16T05:28:44;19.07;;;17.30;;
739;SDS011;354;42.694;23.336;2022-10-16T05:31:09;18.23;;;16.23;;
739;SDS011;354;42.694;23.336;2022-10-16T05:33:35;17.93;;;16.07;;
739;SDS011;354;42.694;23.336;2022-10-16T05:36:01;18.97;;;17.07;;
739;SDS011;354;42.694;23.336;2022-10-16T05:38:27;17.50;;;15.63;;
739;SDS011;354;42.694;23.336;2022-10-16T05:40:52;20.27;;;18.47;;
739;SDS011;354;42.694;23.336;2022-10-16T05:43:17;18.63;;;16.73;;
739;SDS011;354;42.694;23.336;2022-10-16T05:45:43;19.47;;;17.50;;
739;SDS011;354;42.694;23.336;2022-10-16T05:48:08;19.90;;;17.63;;
739;SDS011;354;42.694;23.336;2022-10-16T05:50:33;20.10;;;17.97;;
739;SDS011;354;42.694;23.336;2022-10-16T05:52:58;19.47;;;16.87;;
739;SDS011;354;42.694;23.336;2022-10-16T05:55:24;22.10;;;16.30;;
739;SDS011;354;42.694;23.336;2022-10-16T05:57:49;18.80;;;17.00;;
739;SDS011;354;42.694;23.336;2022-10-16T06:00:14;18.77;;;17.00;;
739;SDS011;354;42.694;23.336;2022-10-16T06:02:39;19.67;;;16.60;;
739;SDS011;354;42.694;23.336;2022-10-16T06:05:04;18.20;;;15.97;;
739;SDS011;354;42.694;23.336;2022-10-16T06:07:33;17.67;;;15.90;;
739;SDS011;354;42.694;23.336;2022-10-16T06:09:58;18.40;;;16.60;;
739;SDS011;354;42.694;23.336;2022-10-16T06:12:24;17.90;;;16.30;;
739;SDS011;354;42.694;23.336;2022-10-16T06:14:49;16.87;;;15.07;;
739;SDS011;354;42.694;23.336;2022-10-16T06:17:14;16.13;;;14.60;;
739;SDS011;354;42.694;23.336;2022-10-16T06:19:40;18.13;;;16.43;;
739;SDS011;354;42.694;23.336;2022-10-16T06:22:05;18.33;;;16.53;;
739;SDS011;354;42.694;23.336;2022-10-16T06:24:30;20.60;;;18.70;;
739;SDS011;354;42.694;23.336;2022-10-16T06:26:55;19.97;;;18.10;;
739;SDS011;354;42.694;23.336;2022-10-16T06:29:21;18.70;;;16.70;;
739;SDS011;354;42.694;23.336;2022-10-16T06:31:46;20.30;;;18.13;;
739;SDS011;354;42.694;23.336;2022-10-16T06:34:11;21.50;;;19.37;;
739;SDS011;354;42.694;23.336;2022-10-16T06:36:37;19.87;;;17.80;;
739;SDS011;354;42.694;23.336;2022-10-16T06:39:03;20.37;;;18.47;;
739;SDS011;354;42.694;23.336;2022-10-16T06:41:28;19.73;;;17.83;;
739;SDS011;354;42.694;23.336;2022-10-16T06:43:53;21.50;;;19.30;;
739;SDS011;354;42.694;23.336;2022-10-16T06:46:20;19.53;;;17.60;;
739;SDS011;354;42.694;23.336;2022-10-16T06:48:46;19.20;;;17.33;;
739;SDS011;354;42.694;23.336;2022-10-16T06:51:12;21.47;;;19.17;;
739;SDS011;354;42.694;23.336;2022-10-16T06:53:40;21.90;;;19.77;;
739;SDS011;354;42.694;23.336;2022-10-16T06:56:09;24.43;;;21.93;;
739;SDS011;354;42.694;23.336;2022-10-16T06:58:35;22.10;;;19.87;;
739;SDS011;354;42.694;23.336;2022-10-16T07:01:00;20.07;;;17.97;;
739;SDS011;354;42.694;23.336;2022-10-16T07:03:25;21.73;;;17.10;;
739;SDS011;354;42.694;23.336;2022-10-16T07:05:51;22.57;;;17.43;;
739;SDS011;354;42.694;23.336;2022-10-16T07:08:16;19.10;;;17.33;;
739;SDS011;354;42.694;23.336;2022-10-16T07:10:41;19.70;;;17.73;;
739;SDS011;354;42.694;23.336;2022-10-16T07:13:07;19.13;;;17.27;;
739;SDS011;354;42.694;23.336;2022-10-16T07:15:38;16.90;;;15.23;;
739;SDS011;354;42.694;23.336;2022-10-16T07:18:03;18.90;;;17.10;;
739;SDS011;354;42.694;23.336;2022-10-16T07:20:28;18.33;;;16.53;;
739;SDS011;354;42.694;23.336;2022-10-16T07:22:54;20.90;;;16.33;;
739;SDS011;354;42.694;23.336;2022-10-16T07:25:19;17.80;;;16.10;;
739;SDS011;354;42.694;23.336;2022-10-16T07:27:44;17.80;;;16.17;;
739;SDS011;354;42.694;23.336;2022-10-16T07:30:09;19.23;;;17.33;;
739;SDS011;354;42.694;23.336;2022-10-16T07:32:35;18.97;;;17.17;;
739;SDS011;354;42.694;23.336;2022-10-16T07:35:00;19.60;;;16.97;;
739;SDS011;354;42.694;23.336;2022-10-16T07:37:25;16.83;;;15.13;;
739;SDS011;354;42.694;23.336;2022-10-16T07:39:51;19.03;;;17.23;;
739;SDS011;354;42.694;23.336;2022-10-16T07:42:16;18.13;;;16.50;;
739;SDS011;354;42.694;23.336;2022-10-16T07:44:41;19.37;;;17.50;;
739;SDS011;354;42.694;23.336;2022-10-16T07:47:07;20.20;;;18.13;;
739;SDS011;354;42.694;23.336;2022-10-16T07:49:33;56.30;;;18.97;;
739;SDS011;354;42.694;23.336;2022-10-16T07:51:58;17.07;;;14.13;;
739;SDS011;354;42.694;23.336;2022-10-16T07:54:23;17.50;;;15.80;;
739;SDS011;354;42.694;23.336;2022-10-16T07:56:49;16.40;;;14.80;;
739;SDS011;354;42.694;23.336;2022-10-16T07:59:14;15.33;;;13.83;;
739;SDS011;354;42.694;23.336;2022-10-16T08:01:39;32.57;;;23.37;;
739;SDS011;354;42.694;23.336;2022-10-16T08:04:04;17.23;;;15.53;;
739;SDS011;354;42.694;23.336;2022-10-16T08:06:30;14.17;;;12.97;;
739;SDS011;354;42.694;23.336;2022-10-16T08:08:59;14.80;;;13.43;;
739;SDS011;354;42.694;23.336;2022-10-16T08:11:25;15.30;;;13.73;;
739;SDS011;354;42.694;23.336;2022-10-16T08:13:50;16.33;;;14.73;;
739;SDS011;354;42.694;23.336;2022-10-16T08:16:16;15.50;;;14.17;;
739;SDS011;354;42.694;23.336;2022-10-16T08:18:42;15.80;;;14.30;;
739;SDS011;354;42.694;23.336;2022-10-16T08:21:08;19.07;;;17.10;;
739;SDS011;354;42.694;23.336;2022-10-16T08:23:36;15.10;;;13.60;;
739;SDS011;354;42.694;23.336;2022-10-16T08:26:03;14.50;;;12.97;;
739;SDS011;354;42.694;23.336;2022-10-16T08:28:29;15.33;;;14.03;;
739;SDS011;354;42.694;23.336;2022-10-16T08:30:54;16.27;;;14.43;;
739;SDS011;354;42.694;23.336;2022-10-16T08:33:21;15.30;;;13.87;;
739;SDS011;354;42.694;23.336;2022-10-16T08:35:50;16.10;;;14.70;;
739;SDS011;354;42.694;23.336;2022-10-16T08:38:15;13.77;;;12.33;;
739;SDS011;354;42.694;23.336;2022-10-16T08:40:41;13.07;;;11.97;;
739;SDS011;354;42.694;23.336;2022-10-16T08:46:46;12.87;;;11.77;;
739;SDS011;354;42.694;23.336;2022-10-16T08:51:07;12.47;;;11.20;;
739;SDS011;354;42.694;23.336;2022-10-16T08:53:38;10.87;;;9.87;;
739;SDS011;354;42.694;23.336;2022-10-16T08:56:05;9.67;;;8.87;;
739;SDS011;354;42.694;23.336;2022-10-16T08:58:31;10.03;;;8.67;;
739;SDS011;354;42.694;23.336;2022-10-16T09:00:57;11.00;;;10.10;;
739;SDS011;354;42.694;23.336;2022-10-16T09:08:49;11.87;;;10.90;;
739;SDS011;354;42.694;23.336;2022-10-16T09:14:35;8.13;;;7.50;;
739;SDS011;354;42.694;23.336;2022-10-16T09:16:40;8.77;;;8.07;;
739;SDS011;354;42.694;23.336;2022-10-16T09:21:46;10.00;;;9.20;;
739;SDS011;354;42.694;23.336;2022-10-16T09:24:17;10.50;;;9.60;;
739;SDS011;354;42.694;23.336;2022-10-16T09:26:43;10.23;;;9.23;;
739;SDS011;354;42.694;23.336;2022-10-16T09:29:11;9.90;;;9.20;;
739;SDS011;354;42.694;23.336;2022-10-16T09:31:37;8.10;;;7.40;;
739;SDS011;354;42.694;23.336;2022-10-16T09:34:02;8.20;;;7.43;;
739;SDS011;354;42.694;23.336;2022-10-16T09:36:35;12.77;;;10.70;;
739;SDS011;354;42.694;23.336;2022-10-16T09:39:05;9.70;;;8.80;;
739;SDS011;354;42.694;23.336;2022-10-16T09:41:30;9.40;;;8.70;;
739;SDS011;354;42.694;23.336;2022-10-16T09:43:56;9.83;;;9.03;;
739;SDS011;354;42.694;23.336;2022-10-16T09:48:48;8.23;;;7.63;;
739;SDS011;354;42.694;23.336;2022-10-16T09:51:24;9.27;;;8.50;;
739;SDS011;354;42.694;23.336;2022-10-16T09:53:53;10.03;;;9.33;;
739;SDS011;354;42.694;23.336;2022-10-16T09:56:37;7.73;;;7.13;;
739;SDS011;354;42.694;23.336;2022-10-16T09:59:16;8.50;;;7.67;;
739;SDS011;354;42.694;23.336;2022-10-16T10:01:51;8.50;;;7.70;;
739;SDS011;354;42.694;23.336;2022-10-16T10:04:18;8.60;;;7.90;;
739;SDS011;354;42.694;23.336;2022-10-16T10:06:53;9.30;;;8.30;;
739;SDS011;354;42.694;23.336;2022-10-16T10:14:30;8.57;;;7.87;;
739;SDS011;354;42.694;23.336;2022-10-16T10:17:14;8.53;;;7.87;;
739;SDS011;354;42.694;23.336;2022-10-16T10:24:55;9.23;;;8.47;;
739;SDS011;354;42.694;23.336;2022-10-16T10:27:21;15.93;;;14.27;;
739;SDS011;354;42.694;23.336;2022-10-16T10:30:03;8.93;;;8.30;;
739;SDS011;354;42.694;23.336;2022-10-16T10:32:33;16.70;;;15.00;;
739;SDS011;354;42.694;23.336;2022-10-16T10:42:48;8.80;;;7.90;;
739;SDS011;354;42.694;23.336;2022-10-16T10:47:59;8.20;;;7.50;;
739;SDS011;354;42.694;23.336;2022-10-16T10:58:35;8.23;;;7.33;;
739;SDS011;354;42.694;23.336;2022-10-16T11:01:06;8.23;;;7.53;;
739;SDS011;354;42.694;23.336;2022-10-16T11:08:56;8.50;;;7.80;;
739;SDS011;354;42.694;23.336;2022-10-16T11:14:03;7.77;;;7.20;;
739;SDS011;354;42.694;23.336;2022-10-16T11:16:31;7.87;;;7.17;;
739;SDS011;354;42.694;23.336;2022-10-16T11:19:08;6.50;;;6.00;;
739;SDS011;354;42.694;23.336;2022-10-16T11:21:40;8.23;;;7.53;;
739;SDS011;354;42.694;23.336;2022-10-16T11:24:14;7.57;;;6.83;;
739;SDS011;354;42.694;23.336;2022-10-16T11:26:41;7.97;;;7.20;;
739;SDS011;354;42.694;23.336;2022-10-16T11:29:10;7.63;;;7.13;;
739;SDS011;354;42.694;23.336;2022-10-16T11:31:41;8.13;;;7.47;;
739;SDS011;354;42.694;23.336;2022-10-16T11:39:30;7.77;;;6.97;;
739;SDS011;354;42.694;23.336;2022-10-16T11:41:59;7.40;;;6.83;;
739;SDS011;354;42.694;23.336;2022-10-16T11:44:35;8.67;;;7.37;;
739;SDS011;354;42.694;23.336;2022-10-16T11:47:19;13.97;;;11.80;;
739;SDS011;354;42.694;23.336;2022-10-16T11:49:49;7.80;;;7.13;;
739;SDS011;354;42.694;23.336;2022-10-16T11:54:52;9.37;;;6.83;;
739;SDS011;354;42.694;23.336;2022-10-16T11:57:26;8.13;;;7.57;;
739;SDS011;354;42.694;23.336;2022-10-16T11:59:57;9.17;;;8.37;;
739;SDS011;354;42.694;23.336;2022-10-16T12:07:26;9.40;;;7.70;;
739;SDS011;354;42.694;23.336;2022-10-16T12:09:52;7.77;;;7.17;;
739;SDS011;354;42.694;23.336;2022-10-16T12:12:24;10.93;;;8.40;;
739;SDS011;354;42.694;23.336;2022-10-16T12:14:59;7.33;;;6.77;;
739;SDS011;354;42.694;23.336;2022-10-16T12:17:37;13.13;;;11.77;;
739;SDS011;354;42.694;23.336;2022-10-16T12:22:40;8.37;;;7.63;;
739;SDS011;354;42.694;23.336;2022-10-16T12:25:17;8.40;;;7.63;;
739;SDS011;354;42.694;23.336;2022-10-16T12:27:44;8.80;;;7.90;;
739;SDS011;354;42.694;23.336;2022-10-16T12:30:14;9.87;;;8.83;;
739;SDS011;354;42.694;23.336;2022-10-16T12:32:43;16.20;;;14.60;;
739;SDS011;354;42.694;23.336;2022-10-16T12:35:19;8.33;;;7.67;;
739;SDS011;354;42.694;23.336;2022-10-16T12:37:45;8.17;;;7.57;;
739;SDS011;354;42.694;23.336;2022-10-16T12:40:15;9.53;;;8.67;;
739;SDS011;354;42.694;23.336;2022-10-16T12:42:41;7.70;;;7.10;;
739;SDS011;354;42.694;23.336;2022-10-16T12:45:21;7.73;;;7.20;;
739;SDS011;354;42.694;23.336;2022-10-16T12:47:48;7.97;;;7.20;;
739;SDS011;354;42.694;23.336;2022-10-16T12:52:58;7.60;;;7.00;;
739;SDS011;354;42.694;23.336;2022-10-16T12:55:24;7.57;;;6.87;;
739;SDS011;354;42.694;23.336;2022-10-16T13:10:52;7.17;;;6.67;;
739;SDS011;354;42.694;23.336;2022-10-16T13:18:29;7.73;;;7.00;;
739;SDS011;354;42.694;23.336;2022-10-16T13:21:03;13.17;;;11.10;;
739;SDS011;354;42.694;23.336;2022-10-16T13:23:46;13.37;;;10.90;;
739;SDS011;354;42.694;23.336;2022-10-16T13:26:29;6.13;;;5.73;;
739;SDS011;354;42.694;23.336;2022-10-16T13:28:59;7.03;;;6.53;;
739;SDS011;354;42.694;23.336;2022-10-16T13:31:26;10.10;;;7.33;;
739;SDS011;354;42.694;23.336;2022-10-16T13:33:52;9.43;;;8.57;;
739;SDS011;354;42.694;23.336;2022-10-16T13:36:24;7.43;;;6.80;;
739;SDS011;354;42.694;23.336;2022-10-16T13:39:11;7.03;;;6.43;;
739;SDS011;354;42.694;23.336;2022-10-16T13:41:35;7.70;;;6.90;;
739;SDS011;354;42.694;23.336;2022-10-16T13:44:00;8.33;;;7.53;;
739;SDS011;354;42.694;23.336;2022-10-16T13:46:26;7.53;;;6.77;;
739;SDS011;354;42.694;23.336;2022-10-16T13:49:05;7.17;;;5.77;;
739;SDS011;354;42.694;23.336;2022-10-16T13:51:31;6.93;;;6.03;;
739;SDS011;354;42.694;23.336;2022-10-16T13:53:57;6.93;;;6.50;;
739;SDS011;354;42.694;23.336;2022-10-16T13:56:25;7.90;;;7.20;;
739;SDS011;354;42.694;23.336;2022-10-16T13:59:00;9.17;;;8.40;;
739;SDS011;354;42.694;23.336;2022-10-16T14:04:20;9.33;;;7.83;;
739;SDS011;354;42.694;23.336;2022-10-16T14:06:46;9.27;;;8.47;;
739;SDS011;354;42.694;23.336;2022-10-16T14:09:23;5.70;;;5.30;;
739;SDS011;354;42.694;23.336;2022-10-16T14:11:55;10.80;;;9.17;;
739;SDS011;354;42.694;23.336;2022-10-16T14:14:21;6.93;;;6.23;;
739;SDS011;354;42.694;23.336;2022-10-16T14:16:47;17.20;;;15.37;;
739;SDS011;354;42.694;23.336;2022-10-16T14:19:15;6.53;;;5.93;;
739;SDS011;354;42.694;23.336;2022-10-16T14:21:42;8.37;;;7.07;;
739;SDS011;354;42.694;23.336;2022-10-16T14:24:12;6.27;;;5.67;;
739;SDS011;354;42.694;23.336;2022-10-16T14:26:42;6.57;;;6.07;;
739;SDS011;354;42.694;23.336;2022-10-16T14:29:12;6.73;;;6.13;;
739;SDS011;354;42.694;23.336;2022-10-16T14:31:38;6.57;;;6.00;;
739;SDS011;354;42.694;23.336;2022-10-16T14:34:04;5.93;;;5.57;;
739;SDS011;354;42.694;23.336;2022-10-16T14:36:47;6.87;;;6.27;;
739;SDS011;354;42.694;23.336;2022-10-16T14:39:22;7.37;;;6.60;;
739;SDS011;354;42.694;23.336;2022-10-16T14:41:48;6.50;;;6.00;;
739;SDS011;354;42.694;23.336;2022-10-16T14:44:14;7.67;;;6.97;;
739;SDS011;354;42.694;23.336;2022-10-16T14:46:41;7.40;;;6.83;;
739;SDS011;354;42.694;23.336;2022-10-16T14:51:35;6.33;;;5.70;;
739;SDS011;354;42.694;23.336;2022-10-16T14:54:01;9.13;;;6.23;;
739;SDS011;354;42.694;23.336;2022-10-16T14:56:34;6.17;;;5.77;;
739;SDS011;354;42.694;23.336;2022-10-16T14:59:00;7.57;;;6.80;;
739;SDS011;354;42.694;23.336;2022-10-16T15:01:26;7.90;;;6.30;;
739;SDS011;354;42.694;23.336;2022-10-16T15:03:52;8.27;;;6.80;;
739;SDS011;354;42.694;23.336;2022-10-16T15:06:19;9.27;;;8.37;;
739;SDS011;354;42.694;23.336;2022-10-16T15:08:44;9.53;;;8.67;;
739;SDS011;354;42.694;23.336;2022-10-16T15:11:13;15.67;;;12.17;;
739;SDS011;354;42.694;23.336;2022-10-16T15:13:39;9.03;;;8.33;;
739;SDS011;354;42.694;23.336;2022-10-16T15:16:07;7.03;;;6.43;;
739;SDS011;354;42.694;23.336;2022-10-16T15:18:32;7.20;;;6.67;;
739;SDS011;354;42.694;23.336;2022-10-16T15:20:57;6.17;;;5.77;;
739;SDS011;354;42.694;23.336;2022-10-16T15:23:23;7.50;;;6.90;;
739;SDS011;354;42.694;23.336;2022-10-16T15:25:49;7.07;;;6.53;;
739;SDS011;354;42.694;23.336;2022-10-16T15:28:15;6.83;;;6.23;;
739;SDS011;354;42.694;23.336;2022-10-16T15:30:41;6.93;;;6.50;;
739;SDS011;354;42.694;23.336;2022-10-16T15:33:11;6.63;;;6.10;;
739;SDS011;354;42.694;23.336;2022-10-16T15:35:37;6.90;;;6.50;;
739;SDS011;354;42.694;23.336;2022-10-16T15:38:02;7.33;;;6.70;;
739;SDS011;354;42.694;23.336;2022-10-16T15:40:27;8.40;;;7.10;;
739;SDS011;354;42.694;23.336;2022-10-16T15:42:52;7.73;;;7.23;;
739;SDS011;354;42.694;23.336;2022-10-16T15:45:18;13.07;;;11.77;;
739;SDS011;354;42.694;23.336;2022-10-16T15:47:44;7.17;;;6.67;;
739;SDS011;354;42.694;23.336;2022-10-16T15:50:10;7.87;;;7.27;;
739;SDS011;354;42.694;23.336;2022-10-16T15:52:36;7.63;;;7.13;;
739;SDS011;354;42.694;23.336;2022-10-16T15:55:03;7.73;;;7.13;;
739;SDS011;354;42.694;23.336;2022-10-16T15:57:29;7.43;;;6.83;;
739;SDS011;354;42.694;23.336;2022-10-16T15:59:54;7.60;;;7.00;;
739;SDS011;354;42.694;23.336;2022-10-16T16:02:19;7.93;;;7.23;;
739;SDS011;354;42.694;23.336;2022-10-16T16:04:44;8.97;;;8.17;;
739;SDS011;354;42.694;23.336;2022-10-16T16:07:10;7.87;;;7.23;;
739;SDS011;354;42.694;23.336;2022-10-16T16:09:35;7.50;;;6.93;;
739;SDS011;354;42.694;23.336;2022-10-16T16:12:01;8.07;;;7.10;;
739;SDS011;354;42.694;23.336;2022-10-16T16:14:26;8.23;;;7.63;;
739;SDS011;354;42.694;23.336;2022-10-16T16:16:53;8.07;;;6.73;;
739;SDS011;354;42.694;23.336;2022-10-16T16:19:18;7.80;;;7.10;;
739;SDS011;354;42.694;23.336;2022-10-16T16:21:45;8.97;;;8.37;;
739;SDS011;354;42.694;23.336;2022-10-16T16:24:11;10.40;;;9.33;;
739;SDS011;354;42.694;23.336;2022-10-16T16:26:36;9.00;;;8.20;;
739;SDS011;354;42.694;23.336;2022-10-16T16:29:04;15.97;;;12.43;;
739;SDS011;354;42.694;23.336;2022-10-16T16:31:30;12.77;;;9.63;;
739;SDS011;354;42.694;23.336;2022-10-16T16:33:56;18.73;;;13.40;;
739;SDS011;354;42.694;23.336;2022-10-16T16:36:22;19.60;;;12.83;;
739;SDS011;354;42.694;23.336;2022-10-16T16:38:47;12.87;;;10.90;;
739;SDS011;354;42.694;23.336;2022-10-16T16:41:17;14.10;;;12.17;;
739;SDS011;354;42.694;23.336;2022-10-16T16:43:43;19.10;;;12.37;;
739;SDS011;354;42.694;23.336;2022-10-16T16:46:08;11.43;;;10.33;;
739;SDS011;354;42.694;23.336;2022-10-16T16:48:34;19.97;;;15.60;;
739;SDS011;354;42.694;23.336;2022-10-16T16:51:03;13.23;;;10.93;;
739;SDS011;354;42.694;23.336;2022-10-16T16:53:28;16.20;;;11.40;;
739;SDS011;354;42.694;23.336;2022-10-16T16:55:53;13.40;;;11.23;;
739;SDS011;354;42.694;23.336;2022-10-16T16:58:18;14.77;;;11.30;;
739;SDS011;354;42.694;23.336;2022-10-16T17:00:46;14.80;;;11.83;;
739;SDS011;354;42.694;23.336;2022-10-16T17:03:12;12.97;;;11.47;;
739;SDS011;354;42.694;23.336;2022-10-16T17:05:37;14.87;;;11.13;;
739;SDS011;354;42.694;23.336;2022-10-16T17:08:06;12.77;;;11.13;;